sensor_id;sensor_type;location;lat;lon;timestamp;P1;durP1;ratioP1;P2;durP2;ratioP2
52956;SDS011;38819;42.692;23.342;2023-05-09T00:01:32;6.22;;;4.30;;
52956;SDS011;38819;42.692;23.342;2023-05-09T00:03:59;4.45;;;3.03;;
52956;SDS011;38819;42.692;23.342;2023-05-09T00:06:25;3.97;;;3.55;;
52956;SDS011;38819;42.692;23.342;2023-05-09T00:08:51;6.20;;;4.20;;
52956;SDS011;38819;42.692;23.342;2023-05-09T00:11:17;3.95;;;3.55;;
52956;SDS011;38819;42.692;23.342;2023-05-09T00:13:43;4.00;;;3.70;;
52956;SDS011;38819;42.692;23.342;2023-05-09T00:16:08;4.50;;;4.10;;
52956;SDS011;38819;42.692;23.342;2023-05-09T00:18:34;4.82;;;3.80;;
52956;SDS011;38819;42.692;23.342;2023-05-09T00:21:01;5.25;;;3.75;;
52956;SDS011;38819;42.692;23.342;2023-05-09T00:23:27;3.88;;;3.00;;
52956;SDS011;38819;42.692;23.342;2023-05-09T00:25:53;4.32;;;2.83;;
52956;SDS011;38819;42.692;23.342;2023-05-09T00:28:19;4.80;;;3.35;;
52956;SDS011;38819;42.692;23.342;2023-05-09T00:30:44;3.92;;;3.40;;
52956;SDS011;38819;42.692;23.342;2023-05-09T00:33:10;3.65;;;3.35;;
52956;SDS011;38819;42.692;23.342;2023-05-09T00:35:35;4.05;;;3.05;;
52956;SDS011;38819;42.692;23.342;2023-05-09T00:38:00;3.22;;;2.90;;
52956;SDS011;38819;42.692;23.342;2023-05-09T00:40:26;4.55;;;3.22;;
52956;SDS011;38819;42.692;23.342;2023-05-09T00:42:51;3.45;;;3.15;;
52956;SDS011;38819;42.692;23.342;2023-05-09T00:45:17;3.00;;;2.72;;
52956;SDS011;38819;42.692;23.342;2023-05-09T00:47:42;3.75;;;3.45;;
52956;SDS011;38819;42.692;23.342;2023-05-09T00:50:08;4.30;;;3.38;;
52956;SDS011;38819;42.692;23.342;2023-05-09T00:52:33;4.85;;;3.20;;
52956;SDS011;38819;42.692;23.342;2023-05-09T00:55:00;3.08;;;2.88;;
52956;SDS011;38819;42.692;23.342;2023-05-09T00:57:26;3.75;;;3.45;;
52956;SDS011;38819;42.692;23.342;2023-05-09T00:59:51;4.18;;;3.08;;
52956;SDS011;38819;42.692;23.342;2023-05-09T01:02:17;4.18;;;3.22;;
52956;SDS011;38819;42.692;23.342;2023-05-09T01:04:44;3.83;;;3.00;;
52956;SDS011;38819;42.692;23.342;2023-05-09T01:07:12;4.32;;;3.38;;
52956;SDS011;38819;42.692;23.342;2023-05-09T01:09:59;4.57;;;3.60;;
52956;SDS011;38819;42.692;23.342;2023-05-09T01:15:38;4.35;;;3.92;;
52956;SDS011;38819;42.692;23.342;2023-05-09T01:20:42;3.85;;;3.55;;
52956;SDS011;38819;42.692;23.342;2023-05-09T01:29:19;6.90;;;3.42;;
52956;SDS011;38819;42.692;23.342;2023-05-09T01:31:50;4.30;;;3.90;;
52956;SDS011;38819;42.692;23.342;2023-05-09T01:34:17;5.00;;;3.58;;
52956;SDS011;38819;42.692;23.342;2023-05-09T01:36:45;4.15;;;3.85;;
52956;SDS011;38819;42.692;23.342;2023-05-09T01:39:14;4.72;;;4.22;;
52956;SDS011;38819;42.692;23.342;2023-05-09T01:44:08;4.40;;;4.00;;
52956;SDS011;38819;42.692;23.342;2023-05-09T01:46:35;4.75;;;4.28;;
52956;SDS011;38819;42.692;23.342;2023-05-09T01:49:02;4.37;;;3.97;;
52956;SDS011;38819;42.692;23.342;2023-05-09T01:53:55;4.47;;;4.07;;
52956;SDS011;38819;42.692;23.342;2023-05-09T01:56:23;4.25;;;3.80;;
52956;SDS011;38819;42.692;23.342;2023-05-09T01:58:50;4.07;;;3.53;;
52956;SDS011;38819;42.692;23.342;2023-05-09T02:01:18;4.45;;;4.05;;
52956;SDS011;38819;42.692;23.342;2023-05-09T02:03:44;3.85;;;3.55;;
52956;SDS011;38819;42.692;23.342;2023-05-09T02:06:14;5.15;;;3.75;;
52956;SDS011;38819;42.692;23.342;2023-05-09T02:08:42;3.85;;;3.55;;
52956;SDS011;38819;42.692;23.342;2023-05-09T02:11:08;5.22;;;3.97;;
52956;SDS011;38819;42.692;23.342;2023-05-09T02:13:33;4.43;;;4.03;;
52956;SDS011;38819;42.692;23.342;2023-05-09T02:15:59;4.32;;;3.90;;
52956;SDS011;38819;42.692;23.342;2023-05-09T02:18:25;4.95;;;4.20;;
52956;SDS011;38819;42.692;23.342;2023-05-09T02:20:51;6.38;;;4.28;;
52956;SDS011;38819;42.692;23.342;2023-05-09T02:23:16;5.43;;;4.18;;
52956;SDS011;38819;42.692;23.342;2023-05-09T02:25:42;7.25;;;4.20;;
52956;SDS011;38819;42.692;23.342;2023-05-09T02:28:08;4.70;;;4.30;;
52956;SDS011;38819;42.692;23.342;2023-05-09T02:30:36;6.10;;;4.57;;
52956;SDS011;38819;42.692;23.342;2023-05-09T02:33:05;4.55;;;3.80;;
52956;SDS011;38819;42.692;23.342;2023-05-09T02:35:33;5.57;;;4.07;;
52956;SDS011;38819;42.692;23.342;2023-05-09T02:37:59;8.75;;;4.55;;
52956;SDS011;38819;42.692;23.342;2023-05-09T02:40:26;4.27;;;3.70;;
52956;SDS011;38819;42.692;23.342;2023-05-09T02:42:53;8.73;;;4.25;;
52956;SDS011;38819;42.692;23.342;2023-05-09T02:45:19;4.07;;;3.78;;
52956;SDS011;38819;42.692;23.342;2023-05-09T02:47:44;5.50;;;4.38;;
52956;SDS011;38819;42.692;23.342;2023-05-09T02:50:10;4.70;;;4.07;;
52956;SDS011;38819;42.692;23.342;2023-05-09T02:52:36;4.75;;;4.35;;
52956;SDS011;38819;42.692;23.342;2023-05-09T02:55:01;5.82;;;4.65;;
52956;SDS011;38819;42.692;23.342;2023-05-09T02:57:27;5.55;;;5.00;;
52956;SDS011;38819;42.692;23.342;2023-05-09T02:59:53;6.88;;;4.60;;
52956;SDS011;38819;42.692;23.342;2023-05-09T03:02:18;6.90;;;4.38;;
52956;SDS011;38819;42.692;23.342;2023-05-09T03:04:43;7.03;;;5.38;;
52956;SDS011;38819;42.692;23.342;2023-05-09T03:07:09;7.97;;;4.90;;
52956;SDS011;38819;42.692;23.342;2023-05-09T03:09:34;5.88;;;5.18;;
52956;SDS011;38819;42.692;23.342;2023-05-09T03:12:00;8.15;;;4.88;;
52956;SDS011;38819;42.692;23.342;2023-05-09T03:14:26;9.02;;;5.95;;
52956;SDS011;38819;42.692;23.342;2023-05-09T03:16:51;7.63;;;5.13;;
52956;SDS011;38819;42.692;23.342;2023-05-09T03:19:16;10.13;;;5.85;;
52956;SDS011;38819;42.692;23.342;2023-05-09T03:21:42;9.48;;;5.28;;
52956;SDS011;38819;42.692;23.342;2023-05-09T03:24:08;12.68;;;5.85;;
52956;SDS011;38819;42.692;23.342;2023-05-09T03:26:34;14.07;;;6.80;;
52956;SDS011;38819;42.692;23.342;2023-05-09T03:29:00;6.35;;;5.75;;
52956;SDS011;38819;42.692;23.342;2023-05-09T03:31:26;7.10;;;5.97;;
52956;SDS011;38819;42.692;23.342;2023-05-09T03:33:51;10.05;;;7.40;;
52956;SDS011;38819;42.692;23.342;2023-05-09T03:36:17;8.35;;;5.85;;
52956;SDS011;38819;42.692;23.342;2023-05-09T03:38:42;8.00;;;5.32;;
52956;SDS011;38819;42.692;23.342;2023-05-09T03:41:08;6.40;;;5.25;;
52956;SDS011;38819;42.692;23.342;2023-05-09T03:43:33;8.02;;;5.78;;
52956;SDS011;38819;42.692;23.342;2023-05-09T03:45:59;10.55;;;6.00;;
52956;SDS011;38819;42.692;23.342;2023-05-09T03:48:24;11.40;;;7.15;;
52956;SDS011;38819;42.692;23.342;2023-05-09T03:50:50;9.88;;;5.78;;
52956;SDS011;38819;42.692;23.342;2023-05-09T03:53:15;7.07;;;6.38;;
52956;SDS011;38819;42.692;23.342;2023-05-09T03:55:41;6.90;;;6.00;;
52956;SDS011;38819;42.692;23.342;2023-05-09T03:58:06;9.43;;;6.13;;
52956;SDS011;38819;42.692;23.342;2023-05-09T04:00:31;6.63;;;5.60;;
52956;SDS011;38819;42.692;23.342;2023-05-09T04:02:57;8.35;;;6.18;;
52956;SDS011;38819;42.692;23.342;2023-05-09T04:05:22;10.50;;;6.15;;
52956;SDS011;38819;42.692;23.342;2023-05-09T04:07:48;18.27;;;7.22;;
52956;SDS011;38819;42.692;23.342;2023-05-09T04:10:13;14.05;;;6.80;;
52956;SDS011;38819;42.692;23.342;2023-05-09T04:12:39;9.80;;;5.90;;
52956;SDS011;38819;42.692;23.342;2023-05-09T04:15:05;6.72;;;6.03;;
52956;SDS011;38819;42.692;23.342;2023-05-09T04:17:31;8.38;;;5.90;;
52956;SDS011;38819;42.692;23.342;2023-05-09T04:19:56;10.25;;;5.93;;
52956;SDS011;38819;42.692;23.342;2023-05-09T04:22:21;7.72;;;6.75;;
52956;SDS011;38819;42.692;23.342;2023-05-09T04:24:47;6.82;;;5.72;;
52956;SDS011;38819;42.692;23.342;2023-05-09T04:27:12;8.10;;;6.53;;
52956;SDS011;38819;42.692;23.342;2023-05-09T04:29:38;12.35;;;7.90;;
52956;SDS011;38819;42.692;23.342;2023-05-09T04:32:03;9.75;;;6.80;;
52956;SDS011;38819;42.692;23.342;2023-05-09T04:34:29;8.40;;;6.72;;
52956;SDS011;38819;42.692;23.342;2023-05-09T04:36:55;6.38;;;5.68;;
52956;SDS011;38819;42.692;23.342;2023-05-09T04:39:23;6.60;;;5.10;;
52956;SDS011;38819;42.692;23.342;2023-05-09T04:41:49;10.15;;;5.93;;
52956;SDS011;38819;42.692;23.342;2023-05-09T04:44:15;8.73;;;4.88;;
52956;SDS011;38819;42.692;23.342;2023-05-09T04:46:41;6.15;;;4.78;;
52956;SDS011;38819;42.692;23.342;2023-05-09T04:49:06;7.10;;;5.30;;
52956;SDS011;38819;42.692;23.342;2023-05-09T04:51:32;10.45;;;5.00;;
52956;SDS011;38819;42.692;23.342;2023-05-09T04:53:57;6.22;;;5.15;;
52956;SDS011;38819;42.692;23.342;2023-05-09T04:56:23;5.72;;;4.55;;
52956;SDS011;38819;42.692;23.342;2023-05-09T04:58:48;4.82;;;4.18;;
52956;SDS011;38819;42.692;23.342;2023-05-09T05:01:14;8.45;;;4.22;;
52956;SDS011;38819;42.692;23.342;2023-05-09T05:03:40;4.97;;;3.35;;
52956;SDS011;38819;42.692;23.342;2023-05-09T05:06:06;4.20;;;3.80;;
52956;SDS011;38819;42.692;23.342;2023-05-09T05:08:31;4.45;;;3.60;;
52956;SDS011;38819;42.692;23.342;2023-05-09T05:10:57;4.45;;;2.78;;
52956;SDS011;38819;42.692;23.342;2023-05-09T05:13:22;4.38;;;2.67;;
52956;SDS011;38819;42.692;23.342;2023-05-09T05:15:48;4.30;;;2.72;;
52956;SDS011;38819;42.692;23.342;2023-05-09T05:18:13;6.22;;;3.35;;
52956;SDS011;38819;42.692;23.342;2023-05-09T05:20:39;2.83;;;2.35;;
52956;SDS011;38819;42.692;23.342;2023-05-09T05:23:05;5.82;;;2.58;;
52956;SDS011;38819;42.692;23.342;2023-05-09T05:25:31;3.53;;;2.75;;
52956;SDS011;38819;42.692;23.342;2023-05-09T05:27:56;3.28;;;2.38;;
52956;SDS011;38819;42.692;23.342;2023-05-09T05:30:21;6.82;;;2.33;;
52956;SDS011;38819;42.692;23.342;2023-05-09T05:32:47;2.55;;;2.00;;
52956;SDS011;38819;42.692;23.342;2023-05-09T05:35:12;8.05;;;1.90;;
52956;SDS011;38819;42.692;23.342;2023-05-09T05:37:38;2.40;;;1.65;;
52956;SDS011;38819;42.692;23.342;2023-05-09T05:40:04;3.13;;;1.77;;
52956;SDS011;38819;42.692;23.342;2023-05-09T05:42:31;14.23;;;2.13;;
52956;SDS011;38819;42.692;23.342;2023-05-09T05:44:57;4.35;;;1.67;;
52956;SDS011;38819;42.692;23.342;2023-05-09T05:47:29;4.65;;;1.40;;
52956;SDS011;38819;42.692;23.342;2023-05-09T05:49:58;1.98;;;1.70;;
52956;SDS011;38819;42.692;23.342;2023-05-09T05:52:23;6.30;;;4.55;;
52956;SDS011;38819;42.692;23.342;2023-05-09T05:54:50;3.25;;;2.00;;
52956;SDS011;38819;42.692;23.342;2023-05-09T05:57:16;3.35;;;1.60;;
52956;SDS011;38819;42.692;23.342;2023-05-09T05:59:41;1.67;;;1.58;;
52956;SDS011;38819;42.692;23.342;2023-05-09T06:02:06;4.28;;;2.08;;
52956;SDS011;38819;42.692;23.342;2023-05-09T06:04:32;5.18;;;1.95;;
52956;SDS011;38819;42.692;23.342;2023-05-09T06:06:57;2.40;;;2.20;;
52956;SDS011;38819;42.692;23.342;2023-05-09T06:09:23;2.58;;;1.90;;
52956;SDS011;38819;42.692;23.342;2023-05-09T06:11:48;3.47;;;2.20;;
52956;SDS011;38819;42.692;23.342;2023-05-09T06:14:13;1.48;;;1.38;;
52956;SDS011;38819;42.692;23.342;2023-05-09T06:16:39;3.05;;;2.00;;
52956;SDS011;38819;42.692;23.342;2023-05-09T06:19:05;2.88;;;1.98;;
52956;SDS011;38819;42.692;23.342;2023-05-09T06:21:30;7.68;;;1.75;;
52956;SDS011;38819;42.692;23.342;2023-05-09T06:23:58;3.65;;;2.20;;
52956;SDS011;38819;42.692;23.342;2023-05-09T06:26:23;4.93;;;1.80;;
52956;SDS011;38819;42.692;23.342;2023-05-09T06:28:49;2.17;;;1.60;;
52956;SDS011;38819;42.692;23.342;2023-05-09T06:31:14;3.20;;;1.85;;
52956;SDS011;38819;42.692;23.342;2023-05-09T06:33:39;4.10;;;1.70;;
52956;SDS011;38819;42.692;23.342;2023-05-09T06:36:05;15.00;;;1.48;;
52956;SDS011;38819;42.692;23.342;2023-05-09T06:38:30;1.55;;;1.45;;
52956;SDS011;38819;42.692;23.342;2023-05-09T06:40:58;5.03;;;2.35;;
52956;SDS011;38819;42.692;23.342;2023-05-09T06:43:23;6.32;;;2.55;;
52956;SDS011;38819;42.692;23.342;2023-05-09T06:45:48;6.22;;;1.55;;
52956;SDS011;38819;42.692;23.342;2023-05-09T06:48:14;2.33;;;1.33;;
52956;SDS011;38819;42.692;23.342;2023-05-09T06:50:39;3.58;;;1.20;;
52956;SDS011;38819;42.692;23.342;2023-05-09T06:53:04;1.67;;;1.58;;
52956;SDS011;38819;42.692;23.342;2023-05-09T06:55:30;1.85;;;1.45;;
52956;SDS011;38819;42.692;23.342;2023-05-09T06:57:55;6.60;;;1.63;;
52956;SDS011;38819;42.692;23.342;2023-05-09T07:00:21;2.22;;;1.40;;
52956;SDS011;38819;42.692;23.342;2023-05-09T07:02:46;4.28;;;1.48;;
52956;SDS011;38819;42.692;23.342;2023-05-09T07:05:12;4.10;;;1.52;;
52956;SDS011;38819;42.692;23.342;2023-05-09T07:07:37;2.05;;;1.23;;
52956;SDS011;38819;42.692;23.342;2023-05-09T07:10:03;1.25;;;1.15;;
52956;SDS011;38819;42.692;23.342;2023-05-09T07:12:32;3.15;;;1.65;;
52956;SDS011;38819;42.692;23.342;2023-05-09T07:14:58;3.72;;;2.13;;
52956;SDS011;38819;42.692;23.342;2023-05-09T07:17:23;20.13;;;10.07;;
52956;SDS011;38819;42.692;23.342;2023-05-09T07:19:49;1.50;;;1.40;;
52956;SDS011;38819;42.692;23.342;2023-05-09T07:22:15;1.58;;;1.48;;
52956;SDS011;38819;42.692;23.342;2023-05-09T07:24:41;2.60;;;1.60;;
52956;SDS011;38819;42.692;23.342;2023-05-09T07:27:08;3.42;;;1.80;;
52956;SDS011;38819;42.692;23.342;2023-05-09T07:29:33;4.10;;;1.38;;
52956;SDS011;38819;42.692;23.342;2023-05-09T07:31:59;4.07;;;1.70;;
52956;SDS011;38819;42.692;23.342;2023-05-09T07:34:24;7.70;;;1.60;;
52956;SDS011;38819;42.692;23.342;2023-05-09T07:36:50;8.43;;;1.92;;
52956;SDS011;38819;42.692;23.342;2023-05-09T07:39:15;2.72;;;1.58;;
52956;SDS011;38819;42.692;23.342;2023-05-09T07:41:41;3.33;;;1.30;;
52956;SDS011;38819;42.692;23.342;2023-05-09T07:44:07;4.10;;;1.42;;
52956;SDS011;38819;42.692;23.342;2023-05-09T07:46:34;1.95;;;1.67;;
52956;SDS011;38819;42.692;23.342;2023-05-09T07:49:01;5.07;;;1.20;;
52956;SDS011;38819;42.692;23.342;2023-05-09T07:51:26;3.85;;;1.60;;
52956;SDS011;38819;42.692;23.342;2023-05-09T07:53:52;4.80;;;1.60;;
52956;SDS011;38819;42.692;23.342;2023-05-09T07:56:19;5.65;;;2.35;;
52956;SDS011;38819;42.692;23.342;2023-05-09T07:58:45;3.78;;;1.95;;
52956;SDS011;38819;42.692;23.342;2023-05-09T08:01:14;1.98;;;1.30;;
52956;SDS011;38819;42.692;23.342;2023-05-09T08:03:39;1.67;;;1.45;;
52956;SDS011;38819;42.692;23.342;2023-05-09T08:06:05;2.20;;;1.52;;
52956;SDS011;38819;42.692;23.342;2023-05-09T08:08:31;3.78;;;1.80;;
52956;SDS011;38819;42.692;23.342;2023-05-09T08:10:57;3.72;;;1.20;;
52956;SDS011;38819;42.692;23.342;2023-05-09T08:13:23;2.92;;;1.40;;
52956;SDS011;38819;42.692;23.342;2023-05-09T08:15:48;6.43;;;1.27;;
52956;SDS011;38819;42.692;23.342;2023-05-09T08:18:14;2.42;;;1.98;;
52956;SDS011;38819;42.692;23.342;2023-05-09T08:20:40;3.22;;;1.40;;
52956;SDS011;38819;42.692;23.342;2023-05-09T08:23:06;1.63;;;0.95;;
52956;SDS011;38819;42.692;23.342;2023-05-09T08:25:32;2.10;;;1.40;;
52956;SDS011;38819;42.692;23.342;2023-05-09T08:27:58;1.58;;;1.23;;
52956;SDS011;38819;42.692;23.342;2023-05-09T08:30:23;1.23;;;1.10;;
52956;SDS011;38819;42.692;23.342;2023-05-09T08:32:49;2.10;;;1.30;;
52956;SDS011;38819;42.692;23.342;2023-05-09T08:35:14;2.38;;;1.25;;
52956;SDS011;38819;42.692;23.342;2023-05-09T08:37:39;4.38;;;1.67;;
52956;SDS011;38819;42.692;23.342;2023-05-09T08:40:05;2.65;;;1.40;;
52956;SDS011;38819;42.692;23.342;2023-05-09T08:42:35;1.75;;;1.08;;
52956;SDS011;38819;42.692;23.342;2023-05-09T08:45:11;1.38;;;1.20;;
52956;SDS011;38819;42.692;23.342;2023-05-09T08:47:40;1.45;;;0.85;;
52956;SDS011;38819;42.692;23.342;2023-05-09T08:50:06;1.15;;;1.00;;
52956;SDS011;38819;42.692;23.342;2023-05-09T08:52:33;1.90;;;1.58;;
52956;SDS011;38819;42.692;23.342;2023-05-09T08:54:59;1.00;;;1.00;;
52956;SDS011;38819;42.692;23.342;2023-05-09T08:57:26;0.77;;;0.70;;
52956;SDS011;38819;42.692;23.342;2023-05-09T08:59:52;2.00;;;1.00;;
52956;SDS011;38819;42.692;23.342;2023-05-09T09:02:19;0.70;;;0.70;;
52956;SDS011;38819;42.692;23.342;2023-05-09T09:04:46;3.78;;;0.90;;
52956;SDS011;38819;42.692;23.342;2023-05-09T09:07:11;1.92;;;1.10;;
52956;SDS011;38819;42.692;23.342;2023-05-09T09:09:42;3.72;;;0.68;;
52956;SDS011;38819;42.692;23.342;2023-05-09T09:12:09;3.05;;;0.90;;
52956;SDS011;38819;42.692;23.342;2023-05-09T09:14:40;1.42;;;1.05;;
52956;SDS011;38819;42.692;23.342;2023-05-09T09:17:10;2.70;;;1.17;;
52956;SDS011;38819;42.692;23.342;2023-05-09T09:19:39;1.50;;;0.80;;
52956;SDS011;38819;42.692;23.342;2023-05-09T09:22:06;1.15;;;0.90;;
52956;SDS011;38819;42.692;23.342;2023-05-09T09:24:34;4.45;;;0.82;;
52956;SDS011;38819;42.692;23.342;2023-05-09T09:27:03;1.58;;;0.82;;
52956;SDS011;38819;42.692;23.342;2023-05-09T09:29:30;1.23;;;0.60;;
52956;SDS011;38819;42.692;23.342;2023-05-09T09:32:00;1.23;;;0.88;;
52956;SDS011;38819;42.692;23.342;2023-05-09T09:34:27;1.52;;;1.42;;
52956;SDS011;38819;42.692;23.342;2023-05-09T09:36:52;1.05;;;1.05;;
52956;SDS011;38819;42.692;23.342;2023-05-09T09:39:17;1.52;;;1.15;;
52956;SDS011;38819;42.692;23.342;2023-05-09T09:41:43;4.00;;;1.10;;
52956;SDS011;38819;42.692;23.342;2023-05-09T09:44:16;0.93;;;0.90;;
52956;SDS011;38819;42.692;23.342;2023-05-09T09:49:13;1.88;;;1.13;;
52956;SDS011;38819;42.692;23.342;2023-05-09T09:51:40;6.47;;;0.90;;
52956;SDS011;38819;42.692;23.342;2023-05-09T09:54:09;3.47;;;1.27;;
52956;SDS011;38819;42.692;23.342;2023-05-09T09:56:37;3.00;;;1.50;;
52956;SDS011;38819;42.692;23.342;2023-05-09T09:59:22;1.02;;;0.98;;
52956;SDS011;38819;42.692;23.342;2023-05-09T10:04:25;1.35;;;1.25;;
52956;SDS011;38819;42.692;23.342;2023-05-09T10:07:11;3.03;;;1.23;;
52956;SDS011;38819;42.692;23.342;2023-05-09T10:09:37;2.83;;;1.13;;
52956;SDS011;38819;42.692;23.342;2023-05-09T10:12:03;1.85;;;1.50;;
52956;SDS011;38819;42.692;23.342;2023-05-09T10:14:31;2.97;;;1.67;;
52956;SDS011;38819;42.692;23.342;2023-05-09T10:16:57;4.30;;;1.60;;
52956;SDS011;38819;42.692;23.342;2023-05-09T10:19:26;1.20;;;1.10;;
52956;SDS011;38819;42.692;23.342;2023-05-09T10:21:57;1.42;;;1.33;;
52956;SDS011;38819;42.692;23.342;2023-05-09T10:27:03;1.63;;;1.50;;
52956;SDS011;38819;42.692;23.342;2023-05-09T10:29:33;1.92;;;1.15;;
52956;SDS011;38819;42.692;23.342;2023-05-09T10:34:52;4.35;;;1.85;;
52956;SDS011;38819;42.692;23.342;2023-05-09T10:37:22;3.85;;;2.17;;
52956;SDS011;38819;42.692;23.342;2023-05-09T10:39:49;3.58;;;1.83;;
52956;SDS011;38819;42.692;23.342;2023-05-09T10:42:19;3.92;;;1.77;;
52956;SDS011;38819;42.692;23.342;2023-05-09T10:44:48;7.15;;;1.40;;
52956;SDS011;38819;42.692;23.342;2023-05-09T10:47:14;1.20;;;1.20;;
52956;SDS011;38819;42.692;23.342;2023-05-09T10:49:40;2.10;;;1.50;;
52956;SDS011;38819;42.692;23.342;2023-05-09T10:52:06;1.95;;;1.73;;
52956;SDS011;38819;42.692;23.342;2023-05-09T10:54:31;1.70;;;1.60;;
52956;SDS011;38819;42.692;23.342;2023-05-09T10:57:00;2.30;;;1.98;;
52956;SDS011;38819;42.692;23.342;2023-05-09T10:59:36;1.65;;;1.55;;
52956;SDS011;38819;42.692;23.342;2023-05-09T11:02:14;1.70;;;1.60;;
52956;SDS011;38819;42.692;23.342;2023-05-09T11:07:23;5.28;;;2.00;;
52956;SDS011;38819;42.692;23.342;2023-05-09T11:09:50;3.83;;;2.40;;
52956;SDS011;38819;42.692;23.342;2023-05-09T11:12:58;2.70;;;2.22;;
52956;SDS011;38819;42.692;23.342;2023-05-09T11:15:24;2.15;;;1.95;;
52956;SDS011;38819;42.692;23.342;2023-05-09T11:18:06;2.90;;;2.60;;
52956;SDS011;38819;42.692;23.342;2023-05-09T11:20:34;3.22;;;2.00;;
52956;SDS011;38819;42.692;23.342;2023-05-09T11:23:06;2.70;;;2.50;;
52956;SDS011;38819;42.692;23.342;2023-05-09T11:25:34;2.20;;;2.00;;
52956;SDS011;38819;42.692;23.342;2023-05-09T11:28:00;7.95;;;2.10;;
52956;SDS011;38819;42.692;23.342;2023-05-09T11:30:37;2.15;;;1.95;;
52956;SDS011;38819;42.692;23.342;2023-05-09T11:33:20;7.55;;;2.83;;
52956;SDS011;38819;42.692;23.342;2023-05-09T11:35:51;5.30;;;2.58;;
52956;SDS011;38819;42.692;23.342;2023-05-09T11:39:00;4.18;;;2.58;;
52956;SDS011;38819;42.692;23.342;2023-05-09T11:41:40;6.95;;;1.88;;
52956;SDS011;38819;42.692;23.342;2023-05-09T11:44:16;2.03;;;1.92;;
52956;SDS011;38819;42.692;23.342;2023-05-09T11:46:46;2.28;;;2.10;;
52956;SDS011;38819;42.692;23.342;2023-05-09T11:49:13;4.05;;;2.33;;
52956;SDS011;38819;42.692;23.342;2023-05-09T11:51:39;3.03;;;2.72;;
52956;SDS011;38819;42.692;23.342;2023-05-09T11:54:05;2.40;;;2.20;;
52956;SDS011;38819;42.692;23.342;2023-05-09T11:56:33;4.53;;;2.33;;
52956;SDS011;38819;42.692;23.342;2023-05-09T11:59:00;6.40;;;2.65;;
52956;SDS011;38819;42.692;23.342;2023-05-09T12:01:27;3.35;;;2.50;;
52956;SDS011;38819;42.692;23.342;2023-05-09T12:03:53;5.45;;;2.55;;
52956;SDS011;38819;42.692;23.342;2023-05-09T12:06:19;3.30;;;2.40;;
52956;SDS011;38819;42.692;23.342;2023-05-09T12:08:45;3.15;;;2.30;;
52956;SDS011;38819;42.692;23.342;2023-05-09T12:11:11;2.80;;;2.58;;
52956;SDS011;38819;42.692;23.342;2023-05-09T12:13:44;3.13;;;2.92;;
52956;SDS011;38819;42.692;23.342;2023-05-09T12:16:14;3.47;;;3.17;;
52956;SDS011;38819;42.692;23.342;2023-05-09T12:18:44;4.60;;;3.25;;
52956;SDS011;38819;42.692;23.342;2023-05-09T12:21:14;4.60;;;3.30;;
52956;SDS011;38819;42.692;23.342;2023-05-09T12:23:40;3.40;;;3.17;;
52956;SDS011;38819;42.692;23.342;2023-05-09T12:26:05;3.08;;;2.88;;
52956;SDS011;38819;42.692;23.342;2023-05-09T12:28:31;3.53;;;2.95;;
52956;SDS011;38819;42.692;23.342;2023-05-09T12:30:57;3.83;;;3.05;;
52956;SDS011;38819;42.692;23.342;2023-05-09T12:33:22;3.40;;;3.10;;
52956;SDS011;38819;42.692;23.342;2023-05-09T12:35:59;4.03;;;3.38;;
52956;SDS011;38819;42.692;23.342;2023-05-09T12:38:27;4.22;;;3.78;;
52956;SDS011;38819;42.692;23.342;2023-05-09T12:41:09;4.15;;;3.00;;
52956;SDS011;38819;42.692;23.342;2023-05-09T12:43:36;4.70;;;3.33;;
52956;SDS011;38819;42.692;23.342;2023-05-09T12:46:03;5.45;;;3.30;;
52956;SDS011;38819;42.692;23.342;2023-05-09T12:48:29;2.65;;;2.45;;
52956;SDS011;38819;42.692;23.342;2023-05-09T12:51:03;6.00;;;3.10;;
52956;SDS011;38819;42.692;23.342;2023-05-09T12:53:29;4.05;;;2.67;;
52956;SDS011;38819;42.692;23.342;2023-05-09T12:56:04;3.20;;;2.90;;
52956;SDS011;38819;42.692;23.342;2023-05-09T12:58:38;4.10;;;2.67;;
52956;SDS011;38819;42.692;23.342;2023-05-09T13:01:04;5.70;;;2.75;;
52956;SDS011;38819;42.692;23.342;2023-05-09T13:03:29;3.20;;;2.90;;
52956;SDS011;38819;42.692;23.342;2023-05-09T13:06:02;4.60;;;3.08;;
52956;SDS011;38819;42.692;23.342;2023-05-09T13:08:29;4.40;;;2.40;;
52956;SDS011;38819;42.692;23.342;2023-05-09T13:10:55;4.45;;;2.33;;
52956;SDS011;38819;42.692;23.342;2023-05-09T13:13:23;4.20;;;2.28;;
52956;SDS011;38819;42.692;23.342;2023-05-09T13:15:50;3.90;;;2.70;;
52956;SDS011;38819;42.692;23.342;2023-05-09T13:18:16;5.15;;;2.85;;
52956;SDS011;38819;42.692;23.342;2023-05-09T13:20:41;3.40;;;3.10;;
52956;SDS011;38819;42.692;23.342;2023-05-09T13:23:07;4.78;;;3.05;;
52956;SDS011;38819;42.692;23.342;2023-05-09T13:25:32;3.30;;;2.55;;
52956;SDS011;38819;42.692;23.342;2023-05-09T13:27:58;2.72;;;2.53;;
52956;SDS011;38819;42.692;23.342;2023-05-09T13:30:23;5.90;;;3.03;;
52956;SDS011;38819;42.692;23.342;2023-05-09T13:32:49;5.30;;;2.80;;
52956;SDS011;38819;42.692;23.342;2023-05-09T13:35:15;7.45;;;3.85;;
52956;SDS011;38819;42.692;23.342;2023-05-09T13:37:41;6.28;;;3.13;;
52956;SDS011;38819;42.692;23.342;2023-05-09T13:40:07;6.50;;;3.78;;
52956;SDS011;38819;42.692;23.342;2023-05-09T13:42:33;4.78;;;3.60;;
52956;SDS011;38819;42.692;23.342;2023-05-09T13:44:59;5.03;;;3.53;;
52956;SDS011;38819;42.692;23.342;2023-05-09T13:47:25;3.63;;;3.03;;
52956;SDS011;38819;42.692;23.342;2023-05-09T13:49:50;7.22;;;3.45;;
52956;SDS011;38819;42.692;23.342;2023-05-09T13:52:16;7.57;;;3.30;;
52956;SDS011;38819;42.692;23.342;2023-05-09T13:54:42;7.25;;;3.38;;
52956;SDS011;38819;42.692;23.342;2023-05-09T13:57:08;2.63;;;2.42;;
52956;SDS011;38819;42.692;23.342;2023-05-09T13:59:33;3.65;;;3.00;;
52956;SDS011;38819;42.692;23.342;2023-05-09T14:01:59;2.45;;;2.25;;
52956;SDS011;38819;42.692;23.342;2023-05-09T14:04:28;3.22;;;2.83;;
52956;SDS011;38819;42.692;23.342;2023-05-09T14:06:56;14.25;;;5.93;;
52956;SDS011;38819;42.692;23.342;2023-05-09T14:09:22;49.50;;;13.10;;
52956;SDS011;38819;42.692;23.342;2023-05-09T14:11:48;7.63;;;3.92;;
52956;SDS011;38819;42.692;23.342;2023-05-09T14:14:18;5.30;;;2.92;;
52956;SDS011;38819;42.692;23.342;2023-05-09T14:16:44;3.03;;;2.45;;
52956;SDS011;38819;42.692;23.342;2023-05-09T14:19:10;4.68;;;3.00;;
52956;SDS011;38819;42.692;23.342;2023-05-09T14:21:36;2.72;;;2.53;;
52956;SDS011;38819;42.692;23.342;2023-05-09T14:24:01;2.95;;;2.38;;
52956;SDS011;38819;42.692;23.342;2023-05-09T14:26:27;7.00;;;2.60;;
52956;SDS011;38819;42.692;23.342;2023-05-09T14:28:52;2.40;;;2.28;;
52956;SDS011;38819;42.692;23.342;2023-05-09T14:31:18;5.10;;;2.13;;
52956;SDS011;38819;42.692;23.342;2023-05-09T14:33:44;2.30;;;1.77;;
52956;SDS011;38819;42.692;23.342;2023-05-09T14:36:09;3.30;;;1.80;;
52956;SDS011;38819;42.692;23.342;2023-05-09T14:38:35;3.95;;;1.67;;
52956;SDS011;38819;42.692;23.342;2023-05-09T14:41:01;4.25;;;1.70;;
52956;SDS011;38819;42.692;23.342;2023-05-09T14:43:27;3.25;;;1.67;;
52956;SDS011;38819;42.692;23.342;2023-05-09T14:45:52;3.25;;;1.30;;
52956;SDS011;38819;42.692;23.342;2023-05-09T14:48:17;1.67;;;1.58;;
52956;SDS011;38819;42.692;23.342;2023-05-09T14:50:43;3.13;;;1.75;;
52956;SDS011;38819;42.692;23.342;2023-05-09T14:53:09;1.95;;;1.80;;
52956;SDS011;38819;42.692;23.342;2023-05-09T14:55:35;2.25;;;1.90;;
52956;SDS011;38819;42.692;23.342;2023-05-09T14:58:00;1.80;;;1.70;;
52956;SDS011;38819;42.692;23.342;2023-05-09T15:00:26;8.57;;;2.28;;
52956;SDS011;38819;42.692;23.342;2023-05-09T15:02:52;3.00;;;2.60;;